sensor_id;sensor_type;location;lat;lon;timestamp;noise_LAeq;noise_LA_min;noise_LA_max;noise_LA01;noise_LA95
57439;Laerm;73745;47.466;8.992;2023-11-22T00:04:06;45.69;43.68;48.71;;
57439;Laerm;73745;47.466;8.992;2023-11-22T00:14:27;45.69;43.77;49.98;;
57439;Laerm;73745;47.466;8.992;2023-11-22T00:17:14;46.06;43.81;54.73;;
57439;Laerm;73745;47.466;8.992;2023-11-22T00:23:11;45.73;43.72;50.34;;
57439;Laerm;73745;47.466;8.992;2023-11-22T00:25:47;45.70;43.77;49.23;;
57439;Laerm;73745;47.466;8.992;2023-11-22T00:28:15;45.70;43.44;48.94;;
57439;Laerm;73745;47.466;8.992;2023-11-22T00:31:02;45.89;43.68;49.00;;
57439;Laerm;73745;47.466;8.992;2023-11-22T00:33:59;45.88;43.90;49.10;;
57439;Laerm;73745;47.466;8.992;2023-11-22T00:36:38;45.78;44.03;48.55;;
57439;Laerm;73745;47.466;8.992;2023-11-22T00:39:28;45.61;43.94;49.81;;
57439;Laerm;73745;47.466;8.992;2023-11-22T00:42:00;45.67;43.49;48.49;;
57439;Laerm;73745;47.466;8.992;2023-11-22T00:51:12;45.56;43.81;49.49;;
57439;Laerm;73745;47.466;8.992;2023-11-22T00:53:44;45.50;43.54;48.98;;
57439;Laerm;73745;47.466;8.992;2023-11-22T00:56:30;45.38;43.63;48.07;;
57439;Laerm;73745;47.466;8.992;2023-11-22T01:24:37;46.03;43.58;51.72;;
57439;Laerm;73745;47.466;8.992;2023-11-22T01:31:05;45.40;43.29;49.12;;
57439;Laerm;73745;47.466;8.992;2023-11-22T01:50:10;45.48;43.44;47.65;;
57439;Laerm;73745;47.466;8.992;2023-11-22T02:00:28;45.68;43.54;49.04;;
57439;Laerm;73745;47.466;8.992;2023-11-22T02:24:28;45.77;43.49;49.10;;
57439;Laerm;73745;47.466;8.992;2023-11-22T02:27:50;45.60;43.63;49.49;;
57439;Laerm;73745;47.466;8.992;2023-11-22T02:41:11;45.86;43.39;50.05;;
57439;Laerm;73745;47.466;8.992;2023-11-22T03:13:39;46.91;43.81;58.64;;
57439;Laerm;73745;47.466;8.992;2023-11-22T03:20:22;46.10;43.58;50.92;;
57439;Laerm;73745;47.466;8.992;2023-11-22T03:38:32;48.46;44.31;59.65;;
57439;Laerm;73745;47.466;8.992;2023-11-22T03:41:50;46.93;43.94;53.41;;
57439;Laerm;73745;47.466;8.992;2023-11-22T03:45:32;46.60;43.94;54.88;;
57439;Laerm;73745;47.466;8.992;2023-11-22T03:49:10;46.44;43.77;52.55;;
57439;Laerm;73745;47.466;8.992;2023-11-22T03:55:18;46.42;43.77;50.66;;
57439;Laerm;73745;47.466;8.992;2023-11-22T03:57:44;46.78;43.90;50.99;;
57439;Laerm;73745;47.466;8.992;2023-11-22T04:00:10;46.54;44.15;50.76;;
57439;Laerm;73745;47.466;8.992;2023-11-22T04:02:46;46.80;44.35;50.61;;
57439;Laerm;73745;47.466;8.992;2023-11-22T04:05:18;46.46;43.90;49.92;;
57439;Laerm;73745;47.466;8.992;2023-11-22T04:19:17;47.23;44.54;52.60;;
57439;Laerm;73745;47.466;8.992;2023-11-22T04:21:49;46.49;44.15;49.92;;
57439;Laerm;73745;47.466;8.992;2023-11-22T04:27:53;51.27;44.23;67.63;;
57439;Laerm;73745;47.466;8.992;2023-11-22T04:30:25;48.20;44.03;60.09;;
57439;Laerm;73745;47.466;8.992;2023-11-22T04:32:50;47.05;44.54;51.66;;
57439;Laerm;73745;47.466;8.992;2023-11-22T04:35:28;46.90;44.27;53.80;;
57439;Laerm;73745;47.466;8.992;2023-11-22T04:38:33;46.71;44.35;50.17;;
57439;Laerm;73745;47.466;8.992;2023-11-22T04:42:18;46.99;44.19;52.26;;
57439;Laerm;73745;47.466;8.992;2023-11-22T04:44:42;46.63;44.11;51.23;;
57439;Laerm;73745;47.466;8.992;2023-11-22T04:47:15;47.12;44.54;58.73;;
57439;Laerm;73745;47.466;8.992;2023-11-22T04:49:47;48.01;44.65;52.94;;
57439;Laerm;73745;47.466;8.992;2023-11-22T04:52:15;47.54;44.87;53.39;;
57439;Laerm;73745;47.466;8.992;2023-11-22T04:55:07;48.36;45.40;53.74;;
57439;Laerm;73745;47.466;8.992;2023-11-22T05:04:33;51.85;45.94;62.22;;
57439;Laerm;73745;47.466;8.992;2023-11-22T05:11:20;49.97;45.72;58.52;;
57439;Laerm;73745;47.466;8.992;2023-11-22T05:17:17;49.17;45.39;54.89;;
57439;Laerm;73745;47.466;8.992;2023-11-22T05:20:28;49.78;46.18;56.12;;
57439;Laerm;73745;47.466;8.992;2023-11-22T05:23:23;49.33;46.10;53.49;;
57439;Laerm;73745;47.466;8.992;2023-11-22T05:25:56;49.58;46.10;56.53;;
57439;Laerm;73745;47.466;8.992;2023-11-22T05:28:37;51.86;47.02;59.71;;
57439;Laerm;73745;47.466;8.992;2023-11-22T05:31:05;55.84;47.76;68.47;;
57439;Laerm;73745;47.466;8.992;2023-11-22T05:36:54;53.75;46.18;70.90;;
57439;Laerm;73745;47.466;8.992;2023-11-22T05:43:32;50.01;46.07;55.68;;
57439;Laerm;73745;47.466;8.992;2023-11-22T05:47:09;55.73;47.04;72.25;;
57439;Laerm;73745;47.466;8.992;2023-11-22T05:49:43;52.16;46.13;64.13;;
57439;Laerm;73745;47.466;8.992;2023-11-22T05:52:29;55.14;46.10;68.13;;
57439;Laerm;73745;47.466;8.992;2023-11-22T06:11:52;52.60;47.30;66.85;;
57439;Laerm;73745;47.466;8.992;2023-11-22T06:17:56;52.78;48.71;58.71;;
57439;Laerm;73745;47.466;8.992;2023-11-22T06:20:58;63.55;49.00;82.80;;
57439;Laerm;73745;47.466;8.992;2023-11-22T06:24:02;52.75;48.13;62.82;;
57439;Laerm;73745;47.466;8.992;2023-11-22T06:27:22;52.47;48.37;63.59;;
57439;Laerm;73745;47.466;8.992;2023-11-22T06:30:46;52.42;48.43;60.52;;
57439;Laerm;73745;47.466;8.992;2023-11-22T06:42:49;53.64;48.80;69.02;;
57439;Laerm;73745;47.466;8.992;2023-11-22T06:45:15;51.91;48.42;57.29;;
57439;Laerm;73745;47.466;8.992;2023-11-22T07:26:01;56.08;49.29;73.27;;
57439;Laerm;73745;47.466;8.992;2023-11-22T07:36:38;53.57;48.42;63.84;;
57439;Laerm;73745;47.466;8.992;2023-11-22T07:42:39;52.76;48.83;57.83;;
57439;Laerm;73745;47.466;8.992;2023-11-22T07:45:04;55.47;48.85;69.49;;
57439;Laerm;73745;47.466;8.992;2023-11-22T07:48:24;55.75;48.36;71.96;;
57439;Laerm;73745;47.466;8.992;2023-11-22T07:54:00;57.56;48.67;71.17;;
57439;Laerm;73745;47.466;8.992;2023-11-22T07:56:26;56.14;50.13;71.12;;
57439;Laerm;73745;47.466;8.992;2023-11-22T07:58:54;59.92;50.32;76.59;;
57439;Laerm;73745;47.466;8.992;2023-11-22T08:01:20;56.58;50.14;69.39;;
57439;Laerm;73745;47.466;8.992;2023-11-22T08:03:45;54.67;49.73;71.49;;
57439;Laerm;73745;47.466;8.992;2023-11-22T08:06:11;54.60;49.50;73.92;;
57439;Laerm;73745;47.466;8.992;2023-11-22T08:08:36;54.21;49.63;68.53;;
57439;Laerm;73745;47.466;8.992;2023-11-22T08:11:05;53.07;48.91;67.95;;
57439;Laerm;73745;47.466;8.992;2023-11-22T08:13:30;56.47;49.43;69.91;;
57439;Laerm;73745;47.466;8.992;2023-11-22T08:15:56;52.54;48.58;57.08;;
57439;Laerm;73745;47.466;8.992;2023-11-22T08:18:21;56.26;49.06;70.57;;
57439;Laerm;73745;47.466;8.992;2023-11-22T08:20:47;64.88;49.60;81.08;;
57439;Laerm;73745;47.466;8.992;2023-11-22T08:23:12;54.96;49.83;74.17;;
57439;Laerm;73745;47.466;8.992;2023-11-22T08:25:40;53.46;49.15;60.58;;
57439;Laerm;73745;47.466;8.992;2023-11-22T08:28:11;54.19;49.07;68.32;;
57439;Laerm;73745;47.466;8.992;2023-11-22T08:30:37;57.45;48.94;78.01;;
57439;Laerm;73745;47.466;8.992;2023-11-22T08:33:03;57.42;50.43;76.48;;
57439;Laerm;73745;47.466;8.992;2023-11-22T08:35:28;56.81;50.56;71.95;;
57439;Laerm;73745;47.466;8.992;2023-11-22T08:37:53;55.28;48.81;67.11;;
57439;Laerm;73745;47.466;8.992;2023-11-22T08:40:20;55.02;49.70;68.39;;
57439;Laerm;73745;47.466;8.992;2023-11-22T08:42:46;57.74;49.62;74.22;;
57439;Laerm;73745;47.466;8.992;2023-11-22T08:45:12;53.00;48.58;60.02;;
57439;Laerm;73745;47.466;8.992;2023-11-22T08:47:40;53.32;49.60;60.96;;
57439;Laerm;73745;47.466;8.992;2023-11-22T08:50:06;53.17;49.08;59.57;;
57439;Laerm;73745;47.466;8.992;2023-11-22T08:52:32;58.43;48.88;73.03;;
57439;Laerm;73745;47.466;8.992;2023-11-22T08:54:57;51.94;48.36;56.52;;
57439;Laerm;73745;47.466;8.992;2023-11-22T08:57:25;52.81;48.43;61.84;;
57439;Laerm;73745;47.466;8.992;2023-11-22T08:59:51;52.44;48.70;60.50;;
57439;Laerm;73745;47.466;8.992;2023-11-22T09:02:16;56.08;49.38;69.53;;
57439;Laerm;73745;47.466;8.992;2023-11-22T09:04:42;53.56;49.47;62.39;;
57439;Laerm;73745;47.466;8.992;2023-11-22T09:07:08;54.42;49.18;67.96;;
57439;Laerm;73745;47.466;8.992;2023-11-22T09:09:35;53.55;49.21;67.22;;
57439;Laerm;73745;47.466;8.992;2023-11-22T09:12:01;55.63;49.73;67.77;;
57439;Laerm;73745;47.466;8.992;2023-11-22T09:14:26;57.92;48.58;75.32;;
57439;Laerm;73745;47.466;8.992;2023-11-22T09:16:52;52.67;48.76;64.16;;
57439;Laerm;73745;47.466;8.992;2023-11-22T09:19:21;53.44;48.85;67.71;;
57439;Laerm;73745;47.466;8.992;2023-11-22T09:21:46;52.03;48.57;66.17;;
57439;Laerm;73745;47.466;8.992;2023-11-22T09:24:12;52.85;49.44;60.31;;
57439;Laerm;73745;47.466;8.992;2023-11-22T09:26:37;52.74;48.94;61.75;;
57439;Laerm;73745;47.466;8.992;2023-11-22T09:29:03;56.47;48.85;78.98;;
57439;Laerm;73745;47.466;8.992;2023-11-22T09:31:29;53.40;48.31;64.92;;
57439;Laerm;73745;47.466;8.992;2023-11-22T09:33:55;51.54;47.50;64.23;;
57439;Laerm;73745;47.466;8.992;2023-11-22T09:36:22;51.89;47.91;64.03;;
57439;Laerm;73745;47.466;8.992;2023-11-22T09:38:48;53.87;48.23;63.25;;
57439;Laerm;73745;47.466;8.992;2023-11-22T09:41:13;51.77;47.61;62.04;;
57439;Laerm;73745;47.466;8.992;2023-11-22T09:43:39;55.29;49.41;69.43;;
57439;Laerm;73745;47.466;8.992;2023-11-22T09:46:05;53.44;49.33;62.87;;
57439;Laerm;73745;47.466;8.992;2023-11-22T09:48:31;53.64;49.80;61.60;;
57439;Laerm;73745;47.466;8.992;2023-11-22T09:50:57;53.23;48.91;68.66;;
57439;Laerm;73745;47.466;8.992;2023-11-22T09:53:31;52.82;48.23;67.49;;
57439;Laerm;73745;47.466;8.992;2023-11-22T09:55:57;54.54;48.57;65.19;;
57439;Laerm;73745;47.466;8.992;2023-11-22T09:58:23;57.34;48.07;81.47;;
57439;Laerm;73745;47.466;8.992;2023-11-22T10:00:50;54.11;48.49;68.20;;
57439;Laerm;73745;47.466;8.992;2023-11-22T10:03:15;59.18;50.79;73.50;;
57439;Laerm;73745;47.466;8.992;2023-11-22T10:05:42;54.39;48.70;66.49;;
57439;Laerm;73745;47.466;8.992;2023-11-22T10:08:07;53.58;48.39;65.21;;
57439;Laerm;73745;47.466;8.992;2023-11-22T10:10:36;52.53;48.91;64.74;;
57439;Laerm;73745;47.466;8.992;2023-11-22T10:13:01;52.67;48.03;71.80;;
57439;Laerm;73745;47.466;8.992;2023-11-22T10:15:27;52.64;47.83;72.31;;
57439;Laerm;73745;47.466;8.992;2023-11-22T10:20:18;55.18;48.05;68.57;;
57439;Laerm;73745;47.466;8.992;2023-11-22T10:22:44;57.49;48.96;74.20;;
57439;Laerm;73745;47.466;8.992;2023-11-22T10:25:10;54.55;48.15;66.10;;
57439;Laerm;73745;47.466;8.992;2023-11-22T10:27:38;52.60;48.60;57.80;;
57439;Laerm;73745;47.466;8.992;2023-11-22T10:30:03;55.23;48.91;77.60;;
57439;Laerm;73745;47.466;8.992;2023-11-22T10:32:30;54.38;48.28;67.32;;
57439;Laerm;73745;47.466;8.992;2023-11-22T10:34:55;53.96;47.61;67.87;;
57439;Laerm;73745;47.466;8.992;2023-11-22T10:37:21;58.12;48.07;75.12;;
57439;Laerm;73745;47.466;8.992;2023-11-22T10:39:52;56.31;48.10;71.47;;
57439;Laerm;73745;47.466;8.992;2023-11-22T10:42:18;52.85;48.60;66.92;;
57439;Laerm;73745;47.466;8.992;2023-11-22T10:44:44;54.27;48.55;65.98;;
57439;Laerm;73745;47.466;8.992;2023-11-22T10:47:12;52.38;48.03;64.50;;
57439;Laerm;73745;47.466;8.992;2023-11-22T10:49:39;61.06;47.67;72.90;;
57439;Laerm;73745;47.466;8.992;2023-11-22T10:52:06;54.29;47.81;67.75;;
57439;Laerm;73745;47.466;8.992;2023-11-22T10:54:33;52.60;46.87;67.07;;
57439;Laerm;73745;47.466;8.992;2023-11-22T10:57:02;53.02;47.20;66.43;;
57439;Laerm;73745;47.466;8.992;2023-11-22T10:59:28;51.43;47.52;62.81;;
57439;Laerm;73745;47.466;8.992;2023-11-22T11:01:59;56.80;47.81;82.86;;
57439;Laerm;73745;47.466;8.992;2023-11-22T11:04:33;52.84;47.74;74.26;;
57439;Laerm;73745;47.466;8.992;2023-11-22T11:07:01;51.50;47.32;62.95;;
57439;Laerm;73745;47.466;8.992;2023-11-22T11:09:27;56.04;47.55;71.35;;
57439;Laerm;73745;47.466;8.992;2023-11-22T11:11:57;53.42;47.02;65.93;;
57439;Laerm;73745;47.466;8.992;2023-11-22T11:14:23;51.56;47.61;57.96;;
57439;Laerm;73745;47.466;8.992;2023-11-22T11:16:49;54.86;47.72;69.92;;
57439;Laerm;73745;47.466;8.992;2023-11-22T11:19:19;53.49;47.26;79.08;;
57439;Laerm;73745;47.466;8.992;2023-11-22T11:21:49;56.96;47.06;72.27;;
57439;Laerm;73745;47.466;8.992;2023-11-22T11:24:15;54.79;47.26;66.70;;
57439;Laerm;73745;47.466;8.992;2023-11-22T11:26:41;53.66;46.57;68.27;;
57439;Laerm;73745;47.466;8.992;2023-11-22T11:29:29;53.17;46.50;68.82;;
57439;Laerm;73745;47.466;8.992;2023-11-22T11:31:54;55.27;46.52;69.04;;
57439;Laerm;73745;47.466;8.992;2023-11-22T11:34:21;51.31;47.44;64.05;;
57439;Laerm;73745;47.466;8.992;2023-11-22T11:36:48;52.27;46.33;74.97;;
57439;Laerm;73745;47.466;8.992;2023-11-22T11:39:18;59.62;46.50;78.10;;
57439;Laerm;73745;47.466;8.992;2023-11-22T11:41:49;54.98;48.39;68.01;;
57439;Laerm;73745;47.466;8.992;2023-11-22T11:44:14;51.66;47.09;64.35;;
57439;Laerm;73745;47.466;8.992;2023-11-22T11:46:41;50.44;47.02;56.29;;
57439;Laerm;73745;47.466;8.992;2023-11-22T11:49:07;53.32;46.52;68.10;;
57439;Laerm;73745;47.466;8.992;2023-11-22T11:51:33;55.20;46.73;74.04;;
57439;Laerm;73745;47.466;8.992;2023-11-22T11:53:58;51.19;47.12;61.71;;
57439;Laerm;73745;47.466;8.992;2023-11-22T11:56:24;55.72;46.66;70.37;;
57439;Laerm;73745;47.466;8.992;2023-11-22T11:58:51;51.73;46.33;62.39;;
57439;Laerm;73745;47.466;8.992;2023-11-22T12:01:17;55.80;47.59;69.92;;
57439;Laerm;73745;47.466;8.992;2023-11-22T12:03:45;56.01;48.71;70.34;;
57439;Laerm;73745;47.466;8.992;2023-11-22T12:06:17;56.51;49.11;69.05;;
57439;Laerm;73745;47.466;8.992;2023-11-22T12:08:44;66.21;50.27;85.50;;
57439;Laerm;73745;47.466;8.992;2023-11-22T12:11:09;55.89;49.39;71.65;;
57439;Laerm;73745;47.466;8.992;2023-11-22T12:13:36;54.17;50.01;71.72;;
57439;Laerm;73745;47.466;8.992;2023-11-22T12:16:07;54.27;48.91;65.13;;
57439;Laerm;73745;47.466;8.992;2023-11-22T12:18:46;54.75;49.66;69.47;;
57439;Laerm;73745;47.466;8.992;2023-11-22T12:21:13;55.57;50.08;69.11;;
57439;Laerm;73745;47.466;8.992;2023-11-22T12:23:38;55.06;49.10;67.38;;
57439;Laerm;73745;47.466;8.992;2023-11-22T12:26:04;55.11;50.45;64.15;;
57439;Laerm;73745;47.466;8.992;2023-11-22T12:28:30;60.42;50.26;83.01;;
57439;Laerm;73745;47.466;8.992;2023-11-22T12:31:18;57.13;48.10;68.18;;
57439;Laerm;73745;47.466;8.992;2023-11-22T12:33:43;53.82;48.66;70.29;;
57439;Laerm;73745;47.466;8.992;2023-11-22T12:36:10;55.27;48.81;71.97;;
57439;Laerm;73745;47.466;8.992;2023-11-22T12:38:36;56.62;48.52;80.82;;
57439;Laerm;73745;47.466;8.992;2023-11-22T12:41:02;59.09;49.69;73.73;;
57439;Laerm;73745;47.466;8.992;2023-11-22T12:43:28;55.27;49.21;67.78;;
57439;Laerm;73745;47.466;8.992;2023-11-22T12:46:01;52.85;48.84;63.41;;
57439;Laerm;73745;47.466;8.992;2023-11-22T12:48:26;55.32;49.39;65.27;;
57439;Laerm;73745;47.466;8.992;2023-11-22T12:50:55;52.85;48.90;60.94;;
57439;Laerm;73745;47.466;8.992;2023-11-22T12:53:21;56.85;48.98;67.23;;
57439;Laerm;73745;47.466;8.992;2023-11-22T12:55:47;55.13;48.24;65.24;;
57439;Laerm;73745;47.466;8.992;2023-11-22T12:58:21;51.82;48.02;61.13;;
57439;Laerm;73745;47.466;8.992;2023-11-22T13:00:47;53.76;46.97;67.90;;
57439;Laerm;73745;47.466;8.992;2023-11-22T13:03:13;52.02;46.95;62.90;;
57439;Laerm;73745;47.466;8.992;2023-11-22T13:05:39;51.16;47.34;56.40;;
57439;Laerm;73745;47.466;8.992;2023-11-22T13:08:04;51.62;48.02;58.00;;
57439;Laerm;73745;47.466;8.992;2023-11-22T13:10:30;52.99;48.57;77.09;;
57439;Laerm;73745;47.466;8.992;2023-11-22T13:12:56;52.15;47.72;59.30;;
57439;Laerm;73745;47.466;8.992;2023-11-22T13:15:21;56.59;47.96;71.44;;
57439;Laerm;73745;47.466;8.992;2023-11-22T13:17:53;54.01;48.12;67.57;;
57439;Laerm;73745;47.466;8.992;2023-11-22T13:20:23;51.65;47.67;59.77;;
57439;Laerm;73745;47.466;8.992;2023-11-22T13:22:50;51.51;48.20;58.80;;
57439;Laerm;73745;47.466;8.992;2023-11-22T13:25:16;51.47;47.76;62.62;;
57439;Laerm;73745;47.466;8.992;2023-11-22T13:27:47;51.64;47.57;58.92;;
57439;Laerm;73745;47.466;8.992;2023-11-22T13:30:16;55.43;48.23;69.04;;
57439;Laerm;73745;47.466;8.992;2023-11-22T13:32:45;54.00;48.46;68.08;;
57439;Laerm;73745;47.466;8.992;2023-11-22T13:35:10;51.60;47.12;57.65;;
57439;Laerm;73745;47.466;8.992;2023-11-22T13:37:47;54.11;48.02;67.85;;
57439;Laerm;73745;47.466;8.992;2023-11-22T13:40:16;51.36;48.05;57.93;;
57439;Laerm;73745;47.466;8.992;2023-11-22T13:42:46;52.79;48.13;63.29;;
57439;Laerm;73745;47.466;8.992;2023-11-22T13:45:12;53.90;47.32;66.83;;
57439;Laerm;73745;47.466;8.992;2023-11-22T13:47:41;50.37;47.24;58.24;;
57439;Laerm;73745;47.466;8.992;2023-11-22T13:50:07;55.82;47.00;71.88;;
57439;Laerm;73745;47.466;8.992;2023-11-22T13:52:34;51.20;47.68;64.10;;
57439;Laerm;73745;47.466;8.992;2023-11-22T13:55:00;56.79;48.07;70.22;;
57439;Laerm;73745;47.466;8.992;2023-11-22T13:57:26;52.48;47.16;63.41;;
57439;Laerm;73745;47.466;8.992;2023-11-22T13:59:52;52.93;48.16;63.21;;
57439;Laerm;73745;47.466;8.992;2023-11-22T14:02:19;57.66;47.76;79.38;;
57439;Laerm;73745;47.466;8.992;2023-11-22T14:04:45;56.26;48.85;68.09;;
57439;Laerm;73745;47.466;8.992;2023-11-22T14:07:11;56.95;47.54;78.04;;
57439;Laerm;73745;47.466;8.992;2023-11-22T14:09:37;58.09;47.76;69.42;;
57439;Laerm;73745;47.466;8.992;2023-11-22T14:12:02;55.13;48.00;70.01;;
57439;Laerm;73745;47.466;8.992;2023-11-22T14:14:28;53.89;47.22;66.75;;
57439;Laerm;73745;47.466;8.992;2023-11-22T14:16:53;53.93;47.84;67.30;;
57439;Laerm;73745;47.466;8.992;2023-11-22T14:19:19;52.65;47.20;60.21;;
57439;Laerm;73745;47.466;8.992;2023-11-22T14:21:44;52.33;47.68;64.63;;
57439;Laerm;73745;47.466;8.992;2023-11-22T14:24:10;52.87;47.90;60.92;;
57439;Laerm;73745;47.466;8.992;2023-11-22T14:26:36;53.17;47.10;68.27;;
57439;Laerm;73745;47.466;8.992;2023-11-22T14:29:02;51.46;47.16;59.35;;
57439;Laerm;73745;47.466;8.992;2023-11-22T14:31:27;52.68;48.34;63.04;;
57439;Laerm;73745;47.466;8.992;2023-11-22T14:33:54;52.65;48.48;62.50;;
57439;Laerm;73745;47.466;8.992;2023-11-22T14:36:21;54.58;48.15;68.60;;
57439;Laerm;73745;47.466;8.992;2023-11-22T14:38:47;51.60;46.97;56.86;;
57439;Laerm;73745;47.466;8.992;2023-11-22T14:41:19;52.84;48.67;58.68;;
57439;Laerm;73745;47.466;8.992;2023-11-22T14:43:44;53.10;48.02;65.28;;
57439;Laerm;73745;47.466;8.992;2023-11-22T14:46:10;52.68;47.70;64.97;;
57439;Laerm;73745;47.466;8.992;2023-11-22T14:48:35;54.31;47.68;67.64;;
57439;Laerm;73745;47.466;8.992;2023-11-22T14:51:03;55.96;47.74;78.08;;
57439;Laerm;73745;47.466;8.992;2023-11-22T14:53:29;51.80;47.68;63.76;;
57439;Laerm;73745;47.466;8.992;2023-11-22T14:55:55;50.90;46.45;61.96;;
57439;Laerm;73745;47.466;8.992;2023-11-22T14:58:20;59.27;47.57;68.51;;
57439;Laerm;73745;47.466;8.992;2023-11-22T15:00:45;57.00;48.98;65.99;;
57439;Laerm;73745;47.466;8.992;2023-11-22T15:03:11;58.32;46.78;75.00;;
57439;Laerm;73745;47.466;8.992;2023-11-22T15:05:37;54.25;48.25;63.08;;
57439;Laerm;73745;47.466;8.992;2023-11-22T15:08:02;59.14;47.22;75.69;;
57439;Laerm;73745;47.466;8.992;2023-11-22T15:10:27;56.25;46.91;76.22;;
57439;Laerm;73745;47.466;8.992;2023-11-22T15:12:53;57.49;47.18;76.30;;
57439;Laerm;73745;47.466;8.992;2023-11-22T15:15:20;52.23;47.20;73.57;;
57439;Laerm;73745;47.466;8.992;2023-11-22T15:17:46;51.15;46.64;66.53;;
57439;Laerm;73745;47.466;8.992;2023-11-22T15:20:11;51.39;47.41;63.19;;
57439;Laerm;73745;47.466;8.992;2023-11-22T15:22:40;53.79;47.30;67.80;;
57439;Laerm;73745;47.466;8.992;2023-11-22T15:25:06;54.34;48.03;68.33;;
57439;Laerm;73745;47.466;8.992;2023-11-22T15:27:32;54.41;47.61;66.37;;
57439;Laerm;73745;47.466;8.992;2023-11-22T15:29:57;51.63;47.54;63.64;;
57439;Laerm;73745;47.466;8.992;2023-11-22T15:32:23;52.46;47.67;60.42;;
57439;Laerm;73745;47.466;8.992;2023-11-22T15:34:48;52.41;47.08;67.32;;
57439;Laerm;73745;47.466;8.992;2023-11-22T15:37:14;51.90;47.86;57.13;;
57439;Laerm;73745;47.466;8.992;2023-11-22T15:39:41;55.68;46.80;73.64;;
57439;Laerm;73745;47.466;8.992;2023-11-22T15:42:07;52.36;46.57;69.54;;
57439;Laerm;73745;47.466;8.992;2023-11-22T15:44:33;65.43;46.62;86.47;;
57439;Laerm;73745;47.466;8.992;2023-11-22T15:46:59;58.16;45.83;75.37;;
57439;Laerm;73745;47.466;8.992;2023-11-22T15:49:24;60.42;46.69;74.88;;
57439;Laerm;73745;47.466;8.992;2023-11-22T15:51:50;60.34;52.50;69.28;;
57439;Laerm;73745;47.466;8.992;2023-11-22T15:54:15;59.06;49.71;68.14;;
57439;Laerm;73745;47.466;8.992;2023-11-22T15:56:45;55.26;47.65;67.61;;
57439;Laerm;73745;47.466;8.992;2023-11-22T15:59:11;55.44;46.76;70.06;;
57439;Laerm;73745;47.466;8.992;2023-11-22T16:01:36;54.25;46.76;65.82;;
57439;Laerm;73745;47.466;8.992;2023-11-22T16:04:01;55.21;46.69;71.82;;
57439;Laerm;73745;47.466;8.992;2023-11-22T16:06:27;53.95;46.59;68.32;;
57439;Laerm;73745;47.466;8.992;2023-11-22T16:08:53;52.13;46.64;69.49;;
57439;Laerm;73745;47.466;8.992;2023-11-22T16:11:18;54.62;46.07;71.33;;
57439;Laerm;73745;47.466;8.992;2023-11-22T16:13:44;49.30;45.75;56.51;;
57439;Laerm;73745;47.466;8.992;2023-11-22T16:16:10;49.08;45.91;54.82;;
57439;Laerm;73745;47.466;8.992;2023-11-22T16:18:36;57.31;46.28;73.89;;
57439;Laerm;73745;47.466;8.992;2023-11-22T16:21:03;51.07;46.38;64.64;;
57439;Laerm;73745;47.466;8.992;2023-11-22T16:23:29;52.59;46.43;68.92;;
57439;Laerm;73745;47.466;8.992;2023-11-22T16:25:54;51.28;46.56;61.03;;
57439;Laerm;73745;47.466;8.992;2023-11-22T16:28:20;57.03;45.94;72.85;;
57439;Laerm;73745;47.466;8.992;2023-11-22T16:30:45;48.98;45.63;53.68;;
57439;Laerm;73745;47.466;8.992;2023-11-22T16:33:11;54.80;45.86;72.56;;
57439;Laerm;73745;47.466;8.992;2023-11-22T16:35:38;57.08;45.42;72.21;;
57439;Laerm;73745;47.466;8.992;2023-11-22T16:38:03;54.59;45.69;70.16;;
57439;Laerm;73745;47.466;8.992;2023-11-22T16:40:29;48.88;45.69;53.13;;
57439;Laerm;73745;47.466;8.992;2023-11-22T16:42:54;50.09;46.10;58.95;;
57439;Laerm;73745;47.466;8.992;2023-11-22T16:45:19;53.81;45.27;68.41;;
57439;Laerm;73745;47.466;8.992;2023-11-22T16:47:45;52.86;46.33;67.66;;
57439;Laerm;73745;47.466;8.992;2023-11-22T16:50:12;56.22;46.15;70.45;;
57439;Laerm;73745;47.466;8.992;2023-11-22T16:52:38;49.86;46.20;58.06;;
57439;Laerm;73745;47.466;8.992;2023-11-22T16:55:03;53.73;46.82;69.13;;
57439;Laerm;73745;47.466;8.992;2023-11-22T16:57:29;54.04;46.59;69.88;;
57439;Laerm;73745;47.466;8.992;2023-11-22T16:59:55;49.70;46.69;53.35;;
57439;Laerm;73745;47.466;8.992;2023-11-22T17:02:20;54.06;46.80;68.99;;
57439;Laerm;73745;47.466;8.992;2023-11-22T17:04:46;50.09;46.40;55.05;;
57439;Laerm;73745;47.466;8.992;2023-11-22T17:07:12;51.38;46.80;75.92;;
57439;Laerm;73745;47.466;8.992;2023-11-22T17:09:37;50.91;46.71;61.70;;
57439;Laerm;73745;47.466;8.992;2023-11-22T17:12:04;56.76;46.59;71.78;;
57439;Laerm;73745;47.466;8.992;2023-11-22T17:14:30;54.99;45.89;72.64;;
57439;Laerm;73745;47.466;8.992;2023-11-22T17:16:56;49.48;46.13;53.67;;
57439;Laerm;73745;47.466;8.992;2023-11-22T17:19:21;49.35;45.86;59.38;;
57439;Laerm;73745;47.466;8.992;2023-11-22T17:21:47;54.43;45.83;67.84;;
57439;Laerm;73745;47.466;8.992;2023-11-22T17:24:12;51.92;46.35;64.68;;
57439;Laerm;73745;47.466;8.992;2023-11-22T17:26:37;53.30;46.25;67.25;;
57439;Laerm;73745;47.466;8.992;2023-11-22T17:29:03;50.48;46.69;55.77;;
57439;Laerm;73745;47.466;8.992;2023-11-22T17:31:28;53.86;46.95;67.56;;
57439;Laerm;73745;47.466;8.992;2023-11-22T17:33:54;50.56;46.57;56.86;;
57439;Laerm;73745;47.466;8.992;2023-11-22T17:36:20;49.88;46.64;59.64;;
57439;Laerm;73745;47.466;8.992;2023-11-22T17:38:45;57.64;47.52;76.57;;
57439;Laerm;73745;47.466;8.992;2023-11-22T17:41:10;52.47;46.33;65.83;;
57439;Laerm;73745;47.466;8.992;2023-11-22T17:43:36;52.70;46.20;66.19;;
57439;Laerm;73745;47.466;8.992;2023-11-22T17:46:01;49.35;46.13;56.55;;
57439;Laerm;73745;47.466;8.992;2023-11-22T17:48:26;51.13;46.25;63.33;;
57439;Laerm;73745;47.466;8.992;2023-11-22T17:50:52;54.44;46.33;69.02;;
57439;Laerm;73745;47.466;8.992;2023-11-22T17:53:17;52.68;46.25;67.21;;
57439;Laerm;73745;47.466;8.992;2023-11-22T17:55:43;48.72;45.63;54.75;;
57439;Laerm;73745;47.466;8.992;2023-11-22T17:58:08;48.92;44.97;59.17;;
57439;Laerm;73745;47.466;8.992;2023-11-22T18:00:33;55.04;45.99;70.13;;
57439;Laerm;73745;47.466;8.992;2023-11-22T18:02:59;49.49;45.91;56.43;;
57439;Laerm;73745;47.466;8.992;2023-11-22T18:05:25;52.58;46.25;64.76;;
57439;Laerm;73745;47.466;8.992;2023-11-22T18:07:52;51.79;45.60;67.17;;
57439;Laerm;73745;47.466;8.992;2023-11-22T18:10:18;55.11;45.97;69.11;;
57439;Laerm;73745;47.466;8.992;2023-11-22T18:12:43;49.41;46.43;58.18;;
57439;Laerm;73745;47.466;8.992;2023-11-22T18:15:08;49.89;45.72;61.05;;
57439;Laerm;73745;47.466;8.992;2023-11-22T18:17:39;49.32;46.13;54.68;;
57439;Laerm;73745;47.466;8.992;2023-11-22T18:20:04;49.88;45.89;54.64;;
57439;Laerm;73745;47.466;8.992;2023-11-22T18:22:34;54.58;46.25;71.69;;
57439;Laerm;73745;47.466;8.992;2023-11-22T18:24:59;53.69;46.35;70.13;;
57439;Laerm;73745;47.466;8.992;2023-11-22T18:27:25;52.76;45.60;66.69;;
57439;Laerm;73745;47.466;8.992;2023-11-22T18:29:50;50.65;45.94;60.49;;
57439;Laerm;73745;47.466;8.992;2023-11-22T18:32:15;55.06;45.39;69.14;;
57439;Laerm;73745;47.466;8.992;2023-11-22T18:34:41;49.18;45.72;57.38;;
57439;Laerm;73745;47.466;8.992;2023-11-22T18:37:06;48.86;45.51;57.52;;
57439;Laerm;73745;47.466;8.992;2023-11-22T18:39:32;49.62;45.91;55.95;;
57439;Laerm;73745;47.466;8.992;2023-11-22T18:41:57;53.49;45.01;66.43;;